Buoy 46611

sailwx.info

Track history (hours):
 
Tides and Currents Weather Stations Pressure Air Temp Water Temp Dewpoint Dewpoint Depression Visibility Wind Speed Wind Dir Waves Ship Positions

Drifting buoy 46611

Last reported at 2014-Jul-30 05:00 UTC. Time now 2014-Jul-30 07:01 UTC.
Position N 48°49' W 143°23'.

Barometer 1020.3 mb
Water temperature 14.2 ° C

Date/timePositionNaut miles runAvg speedWind from/ knotsBaromVisibWave heightAir tempDewpointWater temp
2014-Jul-30 05:00N 48°49' W 143°23'1 0.2 1020.3 14.2
2014-Jul-30 02:00N 48°49' W 143°24'0 0.2 1021.2 14.3
2014-Jul-30 00:00N 48°49' W 143°24'0 0.3 1021.5 14.3
2014-Jul-29 23:00N 48°49' W 143°24'0 0.1 1021.7 14.2
2014-Jul-29 22:00N 48°49' W 143°24'1 1.0 1021.9 14.1
2014-Jul-29 21:00N 48°48' W 143°25'1 0.5 1021.9 14.1
2014-Jul-29 19:00N 48°49' W 143°25'1 0.5 1021.9 14.0
2014-Jul-29 18:00N 48°49' W 143°24'1 1.2 1021.7 14.0
2014-Jul-29 17:00N 48°50' W 143°26'0 0.0 1021.7 13.9
2014-Jul-29 16:00N 48°50' W 143°26'0 0.4 1021.6 13.9
2014-Jul-29 15:00N 48°49' W 143°26'0 0.2 1021.2 13.9
2014-Jul-29 14:00N 48°49' W 143°26'0 0.0 1021.2 13.9
2014-Jul-29 13:00N 48°49' W 143°26'2 1.6 1020.9 13.9
2014-Jul-29 12:00N 48°50' W 143°28'1 0.3 1020.6 13.9
2014-Jul-29 08:00N 48°50' W 143°26'2 2.1 1020.4 13.9
2014-Jul-29 07:00N 48°49' W 143°28'0 0.0 1020.6 14.0
2014-Jul-29 06:00N 48°49' W 143°28'1 1.2 1020.5 14.0
2014-Jul-29 05:00N 48°49' W 143°27'1 0.6 1020.0 14.0
2014-Jul-29 04:00N 48°50' W 143°26'0 0.0 1019.8 14.1
2014-Jul-29 03:00N 48°50' W 143°26'1 0.8 1019.8 14.1
2014-Jul-29 02:00N 48°50' W 143°27'1 0.3 1019.7 14.1
2014-Jul-29 00:00N 48°50' W 143°27'2 1.6 1019.4 14.0
2014-Jul-28 23:00N 48°50' W 143°29'0 0.3 1019.5 13.9
2014-Jul-28 22:00N 48°50' W 143°30'0 0.0 1019.3 13.8
2014-Jul-28 21:00N 48°50' W 143°30'1 0.6 1019.2 13.8
2014-Jul-28 20:00N 48°50' W 143°29'0 0.3 1018.9 13.7
2014-Jul-28 19:00N 48°50' W 143°29'1 0.7 1018.8 13.7
2014-Jul-28 18:00N 48°49' W 143°28'0 0.0 1018.5 13.7
2014-Jul-28 16:00N 48°49' W 143°28'1 0.5 1017.8 13.7
2014-Jul-28 15:00N 48°50' W 143°29'1 0.3 1017.7 13.7
2014-Jul-28 13:00N 48°50' W 143°28'0 0.4 1017.2 13.7
2014-Jul-28 12:00N 48°50' W 143°29'1 0.5 1017.0 13.7
2014-Jul-28 11:00N 48°51' W 143°29'0 0.2 1016.9 13.7
2014-Jul-28 08:00N 48°51' W 143°29'1 0.5 1017.1 13.7
2014-Jul-28 06:00N 48°50' W 143°30'0 0.0 1017.0 13.8
2014-Jul-28 05:00N 48°50' W 143°30'0 0.4 1016.6 13.8
2014-Jul-28 04:00N 48°50' W 143°30'0 0.0 1016.3 13.8
2014-Jul-28 03:00N 48°50' W 143°30'2 1.6 1016.3 13.8
2014-Jul-28 02:00N 48°50' W 143°32'1 1.1 1016.3 13.8
2014-Jul-28 01:00N 48°50' W 143°31'1 0.6 1016.5 13.8
2014-Jul-28 00:00N 48°50' W 143°31'1 0.7 1016.6 13.8
2014-Jul-27 23:00N 48°51' W 143°31'1 0.2 1016.7 13.8
2014-Jul-27 20:00N 48°50' W 143°32'0 0.2 1016.9 13.7
2014-Jul-27 19:00N 48°50' W 143°31'0 0.1 1017.1 13.7
2014-Jul-27 17:00N 48°50' W 143°31'0 0.4 1017.1 13.7
2014-Jul-27 16:00N 48°50' W 143°32'1 0.6 1016.9 13.7
2014-Jul-27 15:00N 48°51' W 143°33'0 0.1 1016.8 13.7
2014-Jul-27 13:00N 48°51' W 143°33'0 0.2 1016.7 13.7
2014-Jul-27 11:00N 48°51' W 143°32'0 0.0 1016.7 13.7
2014-Jul-27 07:00N 48°51' W 143°32'0 0.3 1017.0 13.7
2014-Jul-27 06:00N 48°50' W 143°33'0 0.1 1016.7 13.7
2014-Jul-27 05:00N 48°51' W 143°33'1 0.8 1016.4 13.7
2014-Jul-27 04:00N 48°51' W 143°34'0 0.0 1016.3 13.7
2014-Jul-27 03:00N 48°51' W 143°34'0 0.2 1016.2 13.7
2014-Jul-27 01:00N 48°51' W 143°33'1 0.5 1015.9 13.7
2014-Jul-27 00:00N 48°51' W 143°34'0 0.5 1015.8 13.7
2014-Jul-26 23:00N 48°51' W 143°33'1 1.2 1015.7 13.7
2014-Jul-26 22:00N 48°51' W 143°35'0 0.0 1015.5 13.7
2014-Jul-26 21:00N 48°51' W 143°35'0 0.2 1015.4 13.7
2014-Jul-26 19:00N 48°51' W 143°35'1 0.4 1015.1 13.6
2014-Jul-26 17:00N 48°51' W 143°34'1 0.5 1014.6 13.6
2014-Jul-26 16:00N 48°51' W 143°35'1 0.8 1014.1 13.6
2014-Jul-26 15:00N 48°51' W 143°36'0 0.0 1013.8 13.6
2014-Jul-26 14:00N 48°51' W 143°36'1 1.3 1013.4 13.6
2014-Jul-26 13:00N 48°51' W 143°34'2 1.7 1013.3 13.6
2014-Jul-26 12:00N 48°51' W 143°37'0 0.1 1013.3 13.6
2014-Jul-26 11:00N 48°51' W 143°37'1 0.2 1013.4 13.6
2014-Jul-26 08:00N 48°52' W 143°37'0 0.1 1013.3 13.6
2014-Jul-26 06:00N 48°52' W 143°37'0 0.1 1013.4 13.6
2014-Jul-26 04:00N 48°52' W 143°37'0 0.1 1013.4 13.6
2014-Jul-26 03:00N 48°52' W 143°37'1 0.7 1013.6 13.6
2014-Jul-26 01:00N 48°51' W 143°39'0 0.0 1013.9 13.6
2014-Jul-26 00:00N 48°51' W 143°39'1 0.8 1014.1 13.6
2014-Jul-25 23:00N 48°52' W 143°38'0 0.4 1014.3 13.6
2014-Jul-25 22:00N 48°52' W 143°39'0 0.0 1014.5 13.5
2014-Jul-25 21:00N 48°52' W 143°39'1 0.3 1014.4 13.5
2014-Jul-25 19:00N 48°53' W 143°39'0 0.4 1014.7 13.5
2014-Jul-25 18:00N 48°53' W 143°39'0 0.0 1014.8 13.5
2014-Jul-25 17:00N 48°53' W 143°39'1 0.6 1014.9 13.5
2014-Jul-25 15:00N 48°53' W 143°40'0 0.4 1015.0 13.5
2014-Jul-25 14:00N 48°53' W 143°41'1 0.8 1015.3 13.5
2014-Jul-25 13:00N 48°53' W 143°42'0 0.0 1015.5 13.5
2014-Jul-25 12:00N 48°53' W 143°42'1 1.1 1016.0 13.5
2014-Jul-25 11:00N 48°53' W 143°41'0 0.0 1016.5 13.5
2014-Jul-25 08:00N 48°53' W 143°41'0 0.4 1018.0 13.5
2014-Jul-25 07:00N 48°54' W 143°40'0 0.0 1018.6 13.5
2014-Jul-25 06:00N 48°54' W 143°40'2 2.1 1019.1 13.5
2014-Jul-25 05:00N 48°55' W 143°43'0 0.0 1019.2 13.5
2014-Jul-25 04:00N 48°55' W 143°43'0 0.0 1019.6 13.5
2014-Jul-25 03:00N 48°55' W 143°43'0 0.0 1020.0 13.5
2014-Jul-25 02:00N 48°55' W 143°43'1 1.4 1020.5 13.6
2014-Jul-25 01:00N 48°55' W 143°45'0 0.3 1021.1 13.6
2014-Jul-25 00:00N 48°55' W 143°45'0 0.5 1021.7 13.6
2014-Jul-24 23:00N 48°55' W 143°45'1 0.5 1022.1 13.6
2014-Jul-24 22:00N 48°54' W 143°46'0 0.0 1022.4 13.6
2014-Jul-24 21:00N 48°54' W 143°46'1 0.9 1022.7 13.5
2014-Jul-24 20:00N 48°54' W 143°44'0 0.0 1022.8 13.5
2014-Jul-24 19:00N 48°54' W 143°44'1 0.7 1022.9 13.5
2014-Jul-24 18:00N 48°54' W 143°43'1 1.1 1023.3 13.4
2014-Jul-24 17:00N 48°55' W 143°43'1 0.7 1023.3 13.4
2014-Jul-24 16:00N 48°55' W 143°44'1 0.9 1023.2 13.4
2014-Jul-24 15:00N 48°56' W 143°43'0 0.0 1023.2 13.4
2014-Jul-24 14:00N 48°56' W 143°43'2 0.7 1023.2 13.5
2014-Jul-24 11:00N 48°57' W 143°46'0 0.5 1023.3 13.5
2014-Jul-24 10:00N 48°57' W 143°47'0 0.0 1023.5 13.5
2014-Jul-24 09:00N 48°57' W 143°47'0 0.0 1024.3 13.5
2014-Jul-24 08:00N 48°57' W 143°47'0 0.4 1025.0 13.5
2014-Jul-24 07:00N 48°57' W 143°46'0 0.0 1025.4 13.5
2014-Jul-24 06:00N 48°57' W 143°46'0 0.0 1025.8 13.5
2014-Jul-24 05:00N 48°57' W 143°46'0 0.4 1025.7 13.5
2014-Jul-24 04:00N 48°57' W 143°47'1 0.5 1025.9 13.6
2014-Jul-24 02:00N 48°57' W 143°48'0 0.2 1026.1 13.6
2014-Jul-24 00:00N 48°57' W 143°47'1 0.6 1026.5 13.5
2014-Jul-23 23:00N 48°58' W 143°48'0 0.4 1026.6 13.5
2014-Jul-23 22:00N 48°57' W 143°48'0 0.2 1026.5 13.5
2014-Jul-23 21:00N 48°57' W 143°48'0 0.0 1026.5 13.4
2014-Jul-23 20:00N 48°57' W 143°48'1 0.5 1026.4 13.4
2014-Jul-23 18:00N 48°59' W 143°48'1 0.6 1026.4 13.4
2014-Jul-23 16:00N 48°59' W 143°49'0 0.0 1026.4 13.3
2014-Jul-23 14:00N 48°59' W 143°49'1 0.6 1026.6 13.4
2014-Jul-23 13:00N 48°59' W 143°50'1 0.6 1026.9 13.4
2014-Jul-23 12:00N 48°58' W 143°50'1 0.3 1027.2 13.4
2014-Jul-23 10:00N 48°59' W 143°49'2 0.6 1028.1 13.4
2014-Jul-23 07:00N 49°00' W 143°50'0 0.0 1028.4 13.5
2014-Jul-23 06:00N 49°00' W 143°50'2 0.9 1028.3 13.5
2014-Jul-23 04:00N 49°01' W 143°47'2 0.8 1028.0 13.5
2014-Jul-23 02:00N 49°01' W 143°50'1 1.0 1028.3 13.6
2014-Jul-23 01:00N 49°01' W 143°51'1 0.8 1028.2 13.5
2014-Jul-23 00:00N 49°01' W 143°50'2 1.7 1028.2 13.5
2014-Jul-22 23:00N 49°01' W 143°53'1 1.0 1028.1 13.4
2014-Jul-22 22:00N 49°01' W 143°51'0 0.3 1027.8 13.4
2014-Jul-22 21:00N 49°01' W 143°51'0 0.3 1027.6 13.3
2014-Jul-22 20:00N 49°01' W 143°52'1 1.4 1027.3 13.2
2014-Jul-22 19:00N 49°01' W 143°50'0 0.0 1027.1 13.2
2014-Jul-22 18:00N 49°01' W 143°50'0 0.0 1026.6 13.2
2014-Jul-22 17:00N 49°01' W 143°50'1 0.5 1026.3 13.2
2014-Jul-22 15:00N 49°01' W 143°48'3 1.7 1025.2 13.2
2014-Jul-22 13:00N 49°03' W 143°53'2 0.6 1024.5 13.2
2014-Jul-22 10:00N 49°04' W 143°50'0 0.0 1024.3 13.2
2014-Jul-22 09:00N 49°04' W 143°50'1 0.2 1023.8 13.2
2014-Jul-22 06:00N 49°04' W 143°49'0 0.0 1022.5 13.3
2014-Jul-22 05:00N 49°04' W 143°49'0 0.0 1022.1 13.3
2014-Jul-22 04:00N 49°04' W 143°49'0 0.4 1021.5 13.3
2014-Jul-22 03:00N 49°04' W 143°50'0 0.0 1021.3 13.3
2014-Jul-22 02:00N 49°04' W 143°50'0 0.4 1021.3 13.3
2014-Jul-22 01:00N 49°04' W 143°49'1 0.3 1021.3 13.3
2014-Jul-21 23:00N 49°05' W 143°49'2 0.9 1021.1 13.3
2014-Jul-21 21:00N 49°06' W 143°48'0 0.0 1020.7 13.2
2014-Jul-21 20:00N 49°06' W 143°48'0 0.4 1020.3 13.2
2014-Jul-21 19:00N 49°07' W 143°48'0 0.0 1020.0 13.1
2014-Jul-21 18:00N 49°07' W 143°48'0 0.0 1019.8 13.1
2014-Jul-21 17:00N 49°07' W 143°48'1 1.0 1019.9 13.1
2014-Jul-21 16:00N 49°07' W 143°49'0 0.1 1019.9 13.1
2014-Jul-21 12:00N 49°08' W 143°49'2 0.8 1019.8 13.1
2014-Jul-21 10:00N 49°09' W 143°47'0 0.0 1020.2 13.1
2014-Jul-21 09:00N 49°09' W 143°47'0 0.0 1020.4 13.1
2014-Jul-21 08:00N 49°09' W 143°47'1 0.9 1020.6 13.1
2014-Jul-21 07:00N 49°10' W 143°47'0 0.0 1020.8 13.1
2014-Jul-21 05:00N 49°10' W 143°47'2 1.9 1020.8 13.2
2014-Jul-21 04:00N 49°12' W 143°48'1 0.7 1021.1 13.2
2014-Jul-21 02:00N 49°12' W 143°50'0 0.0 1021.7 13.2
2014-Jul-21 01:00N 49°12' W 143°50'1 0.9 1022.1 13.2
2014-Jul-21 00:00N 49°11' W 143°50'3 1.5 1022.5 13.2
2014-Jul-20 22:00N 49°12' W 143°46'3 1.4 1023.1 13.2
2014-Jul-20 20:00N 49°11' W 143°50'1 0.8 1023.5 13.2
2014-Jul-20 19:00N 49°12' W 143°49'1 1.3 1023.3 13.2
2014-Jul-20 18:00N 49°12' W 143°47'0 0.0 1023.3 13.2
2014-Jul-20 17:00N 49°12' W 143°47'1 1.3 1023.3 13.2
2014-Jul-20 16:00N 49°14' W 143°47'3 2.8 1023.3 13.2
2014-Jul-20 15:00N 49°14' W 143°51'2 2.5 1023.1 13.2
2014-Jul-20 14:00N 49°14' W 143°47'1 1.1 1022.9 13.3
2014-Jul-20 13:00N 49°15' W 143°49'1 0.8 1022.9 13.3
2014-Jul-20 12:00N 49°15' W 143°50'1 0.4 1023.1 13.3
2014-Jul-20 10:00N 49°15' W 143°48'0 0.0 1023.1 13.3
2014-Jul-20 06:00N 49°15' W 143°48'1 0.8 1022.6 13.7
2014-Jul-20 05:00N 49°16' W 143°49'   1022.3 13.7
Track history (hours):
 
Tides and Currents Weather Stations Pressure Air Temp Water Temp Dewpoint Dewpoint Depression Visibility Wind Speed Wind Dir Waves Ship Positions

Drifting buoy 46611

Last reported at 2014-Jul-30 05:00 UTC. Time now 2014-Jul-30 07:01 UTC.
Position N 48°49' W 143°23'.

Barometer 1020.3 mb
Water temperature 14.2 ° C

Date/timePositionNaut miles runAvg speedWind from/ knotsBaromVisibWave heightAir tempDewpointWater temp
2014-Jul-30 05:00N 48°49' W 143°23'1 0.2 1020.3 14.2
2014-Jul-30 02:00N 48°49' W 143°24'0 0.2 1021.2 14.3
2014-Jul-30 00:00N 48°49' W 143°24'0 0.3 1021.5 14.3
2014-Jul-29 23:00N 48°49' W 143°24'0 0.1 1021.7 14.2
2014-Jul-29 22:00N 48°49' W 143°24'1 1.0 1021.9 14.1
2014-Jul-29 21:00N 48°48' W 143°25'1 0.5 1021.9 14.1
2014-Jul-29 19:00N 48°49' W 143°25'1 0.5 1021.9 14.0
2014-Jul-29 18:00N 48°49' W 143°24'1 1.2 1021.7 14.0
2014-Jul-29 17:00N 48°50' W 143°26'0 0.0 1021.7 13.9
2014-Jul-29 16:00N 48°50' W 143°26'0 0.4 1021.6 13.9
2014-Jul-29 15:00N 48°49' W 143°26'0 0.2 1021.2 13.9
2014-Jul-29 14:00N 48°49' W 143°26'0 0.0 1021.2 13.9
2014-Jul-29 13:00N 48°49' W 143°26'2 1.6 1020.9 13.9
2014-Jul-29 12:00N 48°50' W 143°28'1 0.3 1020.6 13.9
2014-Jul-29 08:00N 48°50' W 143°26'2 2.1 1020.4 13.9
2014-Jul-29 07:00N 48°49' W 143°28'0 0.0 1020.6 14.0
2014-Jul-29 06:00N 48°49' W 143°28'1 1.2 1020.5 14.0
2014-Jul-29 05:00N 48°49' W 143°27'1 0.6 1020.0 14.0
2014-Jul-29 04:00N 48°50' W 143°26'0 0.0 1019.8 14.1
2014-Jul-29 03:00N 48°50' W 143°26'1 0.8 1019.8 14.1
2014-Jul-29 02:00N 48°50' W 143°27'1 0.3 1019.7 14.1
2014-Jul-29 00:00N 48°50' W 143°27'2 1.6 1019.4 14.0
2014-Jul-28 23:00N 48°50' W 143°29'0 0.3 1019.5 13.9
2014-Jul-28 22:00N 48°50' W 143°30'0 0.0 1019.3 13.8
2014-Jul-28 21:00N 48°50' W 143°30'1 0.6 1019.2 13.8
2014-Jul-28 20:00N 48°50' W 143°29'0 0.3 1018.9 13.7
2014-Jul-28 19:00N 48°50' W 143°29'1 0.7 1018.8 13.7
2014-Jul-28 18:00N 48°49' W 143°28'0 0.0 1018.5 13.7
2014-Jul-28 16:00N 48°49' W 143°28'1 0.5 1017.8 13.7
2014-Jul-28 15:00N 48°50' W 143°29'1 0.3 1017.7 13.7
2014-Jul-28 13:00N 48°50' W 143°28'0 0.4 1017.2 13.7
2014-Jul-28 12:00N 48°50' W 143°29'1 0.5 1017.0 13.7
2014-Jul-28 11:00N 48°51' W 143°29'0 0.2 1016.9 13.7
2014-Jul-28 08:00N 48°51' W 143°29'1 0.5 1017.1 13.7
2014-Jul-28 06:00N 48°50' W 143°30'0 0.0 1017.0 13.8
2014-Jul-28 05:00N 48°50' W 143°30'0 0.4 1016.6 13.8
2014-Jul-28 04:00N 48°50' W 143°30'0 0.0 1016.3 13.8
2014-Jul-28 03:00N 48°50' W 143°30'2 1.6 1016.3 13.8
2014-Jul-28 02:00N 48°50' W 143°32'1 1.1 1016.3 13.8
2014-Jul-28 01:00N 48°50' W 143°31'1 0.6 1016.5 13.8
2014-Jul-28 00:00N 48°50' W 143°31'1 0.7 1016.6 13.8
2014-Jul-27 23:00N 48°51' W 143°31'1 0.2 1016.7 13.8
2014-Jul-27 20:00N 48°50' W 143°32'0 0.2 1016.9 13.7
2014-Jul-27 19:00N 48°50' W 143°31'0 0.1 1017.1 13.7
2014-Jul-27 17:00N 48°50' W 143°31'0 0.4 1017.1 13.7
2014-Jul-27 16:00N 48°50' W 143°32'1 0.6 1016.9 13.7
2014-Jul-27 15:00N 48°51' W 143°33'0 0.1 1016.8 13.7
2014-Jul-27 13:00N 48°51' W 143°33'0 0.2 1016.7 13.7
2014-Jul-27 11:00N 48°51' W 143°32'0 0.0 1016.7 13.7
2014-Jul-27 07:00N 48°51' W 143°32'0 0.3 1017.0 13.7
2014-Jul-27 06:00N 48°50' W 143°33'0 0.1 1016.7 13.7
2014-Jul-27 05:00N 48°51' W 143°33'1 0.8 1016.4 13.7
2014-Jul-27 04:00N 48°51' W 143°34'0 0.0 1016.3 13.7
2014-Jul-27 03:00N 48°51' W 143°34'0 0.2 1016.2 13.7
2014-Jul-27 01:00N 48°51' W 143°33'1 0.5 1015.9 13.7
2014-Jul-27 00:00N 48°51' W 143°34'0 0.5 1015.8 13.7
2014-Jul-26 23:00N 48°51' W 143°33'1 1.2 1015.7 13.7
2014-Jul-26 22:00N 48°51' W 143°35'0 0.0 1015.5 13.7
2014-Jul-26 21:00N 48°51' W 143°35'0 0.2 1015.4 13.7
2014-Jul-26 19:00N 48°51' W 143°35'1 0.4 1015.1 13.6
2014-Jul-26 17:00N 48°51' W 143°34'1 0.5 1014.6 13.6
2014-Jul-26 16:00N 48°51' W 143°35'1 0.8 1014.1 13.6
2014-Jul-26 15:00N 48°51' W 143°36'0 0.0 1013.8 13.6
2014-Jul-26 14:00N 48°51' W 143°36'1 1.3 1013.4 13.6
2014-Jul-26 13:00N 48°51' W 143°34'2 1.7 1013.3 13.6
2014-Jul-26 12:00N 48°51' W 143°37'0 0.1 1013.3 13.6
2014-Jul-26 11:00N 48°51' W 143°37'1 0.2 1013.4 13.6
2014-Jul-26 08:00N 48°52' W 143°37'0 0.1 1013.3 13.6
2014-Jul-26 06:00N 48°52' W 143°37'0 0.1 1013.4 13.6
2014-Jul-26 04:00N 48°52' W 143°37'0 0.1 1013.4 13.6
2014-Jul-26 03:00N 48°52' W 143°37'1 0.7 1013.6 13.6
2014-Jul-26 01:00N 48°51' W 143°39'0 0.0 1013.9 13.6
2014-Jul-26 00:00N 48°51' W 143°39'1 0.8 1014.1 13.6
2014-Jul-25 23:00N 48°52' W 143°38'0 0.4 1014.3 13.6
2014-Jul-25 22:00N 48°52' W 143°39'0 0.0 1014.5 13.5
2014-Jul-25 21:00N 48°52' W 143°39'1 0.3 1014.4 13.5
2014-Jul-25 19:00N 48°53' W 143°39'0 0.4 1014.7 13.5
2014-Jul-25 18:00N 48°53' W 143°39'0 0.0 1014.8 13.5
2014-Jul-25 17:00N 48°53' W 143°39'1 0.6 1014.9 13.5
2014-Jul-25 15:00N 48°53' W 143°40'0 0.4 1015.0 13.5
2014-Jul-25 14:00N 48°53' W 143°41'1 0.8 1015.3 13.5
2014-Jul-25 13:00N 48°53' W 143°42'0 0.0 1015.5 13.5
2014-Jul-25 12:00N 48°53' W 143°42'1 1.1 1016.0 13.5
2014-Jul-25 11:00N 48°53' W 143°41'0 0.0 1016.5 13.5
2014-Jul-25 08:00N 48°53' W 143°41'0 0.4 1018.0 13.5
2014-Jul-25 07:00N 48°54' W 143°40'0 0.0 1018.6 13.5
2014-Jul-25 06:00N 48°54' W 143°40'2 2.1 1019.1 13.5
2014-Jul-25 05:00N 48°55' W 143°43'0 0.0 1019.2 13.5
2014-Jul-25 04:00N 48°55' W 143°43'0 0.0 1019.6 13.5
2014-Jul-25 03:00N 48°55' W 143°43'0 0.0 1020.0 13.5
2014-Jul-25 02:00N 48°55' W 143°43'1 1.4 1020.5 13.6
2014-Jul-25 01:00N 48°55' W 143°45'0 0.3 1021.1 13.6
2014-Jul-25 00:00N 48°55' W 143°45'0 0.5 1021.7 13.6
2014-Jul-24 23:00N 48°55' W 143°45'1 0.5 1022.1 13.6
2014-Jul-24 22:00N 48°54' W 143°46'0 0.0 1022.4 13.6
2014-Jul-24 21:00N 48°54' W 143°46'1 0.9 1022.7 13.5
2014-Jul-24 20:00N 48°54' W 143°44'0 0.0 1022.8 13.5
2014-Jul-24 19:00N 48°54' W 143°44'1 0.7 1022.9 13.5
2014-Jul-24 18:00N 48°54' W 143°43'1 1.1 1023.3 13.4
2014-Jul-24 17:00N 48°55' W 143°43'1 0.7 1023.3 13.4
2014-Jul-24 16:00N 48°55' W 143°44'1 0.9 1023.2 13.4
2014-Jul-24 15:00N 48°56' W 143°43'0 0.0 1023.2 13.4
2014-Jul-24 14:00N 48°56' W 143°43'2 0.7 1023.2 13.5
2014-Jul-24 11:00N 48°57' W 143°46'0 0.5 1023.3 13.5
2014-Jul-24 10:00N 48°57' W 143°47'0 0.0 1023.5 13.5
2014-Jul-24 09:00N 48°57' W 143°47'0 0.0 1024.3 13.5
2014-Jul-24 08:00N 48°57' W 143°47'0 0.4 1025.0 13.5
2014-Jul-24 07:00N 48°57' W 143°46'0 0.0 1025.4 13.5
2014-Jul-24 06:00N 48°57' W 143°46'0 0.0 1025.8 13.5
2014-Jul-24 05:00N 48°57' W 143°46'0 0.4 1025.7 13.5
2014-Jul-24 04:00N 48°57' W 143°47'1 0.5 1025.9 13.6
2014-Jul-24 02:00N 48°57' W 143°48'0 0.2 1026.1 13.6
2014-Jul-24 00:00N 48°57' W 143°47'1 0.6 1026.5 13.5
2014-Jul-23 23:00N 48°58' W 143°48'0 0.4 1026.6 13.5
2014-Jul-23 22:00N 48°57' W 143°48'0 0.2 1026.5 13.5
2014-Jul-23 21:00N 48°57' W 143°48'0 0.0 1026.5 13.4
2014-Jul-23 20:00N 48°57' W 143°48'1 0.5 1026.4 13.4
2014-Jul-23 18:00N 48°59' W 143°48'1 0.6 1026.4 13.4
2014-Jul-23 16:00N 48°59' W 143°49'0 0.0 1026.4 13.3
2014-Jul-23 14:00N 48°59' W 143°49'1 0.6 1026.6 13.4
2014-Jul-23 13:00N 48°59' W 143°50'1 0.6 1026.9 13.4
2014-Jul-23 12:00N 48°58' W 143°50'1 0.3 1027.2 13.4
2014-Jul-23 10:00N 48°59' W 143°49'2 0.6 1028.1 13.4
2014-Jul-23 07:00N 49°00' W 143°50'0 0.0 1028.4 13.5
2014-Jul-23 06:00N 49°00' W 143°50'2 0.9 1028.3 13.5
2014-Jul-23 04:00N 49°01' W 143°47'2 0.8 1028.0 13.5
2014-Jul-23 02:00N 49°01' W 143°50'1 1.0 1028.3 13.6
2014-Jul-23 01:00N 49°01' W 143°51'1 0.8 1028.2 13.5
2014-Jul-23 00:00N 49°01' W 143°50'2 1.7 1028.2 13.5
2014-Jul-22 23:00N 49°01' W 143°53'1 1.0 1028.1 13.4
2014-Jul-22 22:00N 49°01' W 143°51'0 0.3 1027.8 13.4
2014-Jul-22 21:00N 49°01' W 143°51'0 0.3 1027.6 13.3
2014-Jul-22 20:00N 49°01' W 143°52'1 1.4 1027.3 13.2
2014-Jul-22 19:00N 49°01' W 143°50'0 0.0 1027.1 13.2
2014-Jul-22 18:00N 49°01' W 143°50'0 0.0 1026.6 13.2
2014-Jul-22 17:00N 49°01' W 143°50'1 0.5 1026.3 13.2
2014-Jul-22 15:00N 49°01' W 143°48'3 1.7 1025.2 13.2
2014-Jul-22 13:00N 49°03' W 143°53'2 0.6 1024.5 13.2
2014-Jul-22 10:00N 49°04' W 143°50'0 0.0 1024.3 13.2
2014-Jul-22 09:00N 49°04' W 143°50'1 0.2 1023.8 13.2
2014-Jul-22 06:00N 49°04' W 143°49'0 0.0 1022.5 13.3
2014-Jul-22 05:00N 49°04' W 143°49'0 0.0 1022.1 13.3
2014-Jul-22 04:00N 49°04' W 143°49'0 0.4 1021.5 13.3
2014-Jul-22 03:00N 49°04' W 143°50'0 0.0 1021.3 13.3
2014-Jul-22 02:00N 49°04' W 143°50'0 0.4 1021.3 13.3
2014-Jul-22 01:00N 49°04' W 143°49'1 0.3 1021.3 13.3
2014-Jul-21 23:00N 49°05' W 143°49'2 0.9 1021.1 13.3
2014-Jul-21 21:00N 49°06' W 143°48'0 0.0 1020.7 13.2
2014-Jul-21 20:00N 49°06' W 143°48'0 0.4 1020.3 13.2
2014-Jul-21 19:00N 49°07' W 143°48'0 0.0 1020.0 13.1
2014-Jul-21 18:00N 49°07' W 143°48'0 0.0 1019.8 13.1
2014-Jul-21 17:00N 49°07' W 143°48'1 1.0 1019.9 13.1
2014-Jul-21 16:00N 49°07' W 143°49'0 0.1 1019.9 13.1
2014-Jul-21 12:00N 49°08' W 143°49'2 0.8 1019.8 13.1
2014-Jul-21 10:00N 49°09' W 143°47'0 0.0 1020.2 13.1
2014-Jul-21 09:00N 49°09' W 143°47'0 0.0 1020.4 13.1
2014-Jul-21 08:00N 49°09' W 143°47'1 0.9 1020.6 13.1
2014-Jul-21 07:00N 49°10' W 143°47'0 0.0 1020.8 13.1
2014-Jul-21 05:00N 49°10' W 143°47'2 1.9 1020.8 13.2
2014-Jul-21 04:00N 49°12' W 143°48'1 0.7 1021.1 13.2
2014-Jul-21 02:00N 49°12' W 143°50'0 0.0 1021.7 13.2
2014-Jul-21 01:00N 49°12' W 143°50'1 0.9 1022.1 13.2
2014-Jul-21 00:00N 49°11' W 143°50'3 1.5 1022.5 13.2
2014-Jul-20 22:00N 49°12' W 143°46'3 1.4 1023.1 13.2
2014-Jul-20 20:00N 49°11' W 143°50'1 0.8 1023.5 13.2
2014-Jul-20 19:00N 49°12' W 143°49'1 1.3 1023.3 13.2
2014-Jul-20 18:00N 49°12' W 143°47'0 0.0 1023.3 13.2
2014-Jul-20 17:00N 49°12' W 143°47'1 1.3 1023.3 13.2
2014-Jul-20 16:00N 49°14' W 143°47'3 2.8 1023.3 13.2
2014-Jul-20 15:00N 49°14' W 143°51'2 2.5 1023.1 13.2
2014-Jul-20 14:00N 49°14' W 143°47'1 1.1 1022.9 13.3
2014-Jul-20 13:00N 49°15' W 143°49'1 0.8 1022.9 13.3
2014-Jul-20 12:00N 49°15' W 143°50'1 0.4 1023.1 13.3
2014-Jul-20 10:00N 49°15' W 143°48'0 0.0 1023.1 13.3
2014-Jul-20 06:00N 49°15' W 143°48'1 0.8 1022.6 13.7
2014-Jul-20 05:00N 49°16' W 143°49'   1022.3 13.7

Dump ship's entire track history